»·PEaware :: UAL2070 KSAN-KSFO

UAL2070 :: KSAN-KSFO

FLIGHT INFORMATION

Flight Status: Arrived
Operator:
United Airlines
More flights by this operator :: More flights under this callsign
Pilot: Alfredo R. (12181)
Aircraft: BOEING 737-800
(B738)
More flights by this aircraft type
Origin: KSAN San Diego Intl-Lindbergh
United States
Destination: KSFO San Francisco Intl
United States
More flights between these airports :: More routes between these airports
Route: PADRZ2 IKAYE RIZIN SPLNT STOKD SERFR SERFR3
File this flight plan on PilotEdge
Remarks:
Altitude:
(Current/Filed)
36,000ft
Speed:
(Current/Filed)
425kts
Departed: 29-Jul-18 07:40 PM
Arrived: 29-Jul-18 08:45 PM
Distance/Time
Traveled:
388nm/1:05
Distance/Time
To Go:
Arrived

Flight Plot

Page will automatically refresh every two minutes.

Flight plan parsing failed; only flown route is shown


Map Options




Map Legend


Flown Route
Filed Route
Departure Airport
Arrival Airport
Navaid (VOR, NDB)
Fix

Horizontal Profiles

Position Reports

Time Latitude Longitude Heading Altitude Ground
Speed
29-Jul-18 19:07 32.734520 -117.203412 230 17ft 0kts
29-Jul-18 19:08 32.734520 -117.203412 230 17ft 0kts
29-Jul-18 19:09 32.734520 -117.203412 230 17ft 0kts
29-Jul-18 19:10 32.734520 -117.203412 230 17ft 0kts
29-Jul-18 19:11 32.734520 -117.203412 230 17ft 0kts
29-Jul-18 19:12 32.734520 -117.203412 230 17ft 0kts
29-Jul-18 19:13 32.734520 -117.203412 230 17ft 0kts
29-Jul-18 19:14 32.734520 -117.203412 230 17ft 0kts
29-Jul-18 19:15 32.734520 -117.203412 230 17ft 0kts
29-Jul-18 19:16 32.734520 -117.203412 230 17ft 0kts
29-Jul-18 19:17 32.734520 -117.203412 230 17ft 0kts
29-Jul-18 19:18 32.734520 -117.203412 230 17ft 0kts
29-Jul-18 19:19 32.734520 -117.203412 230 17ft 0kts
29-Jul-18 19:20 32.734520 -117.203412 230 17ft 0kts
29-Jul-18 19:21 32.734520 -117.203412 230 17ft 0kts
29-Jul-18 19:22 32.734711 -117.203136 231 17ft 2kts
29-Jul-18 19:23 32.735059 -117.203416 103 17ft 2kts
29-Jul-18 19:24 32.734929 -117.202799 102 17ft 1kts
29-Jul-18 19:25 32.735089 -117.202404 37 17ft 0kts
29-Jul-18 19:26 32.735089 -117.202404 37 17ft 0kts
29-Jul-18 19:27 32.735089 -117.202404 37 17ft 0kts
29-Jul-18 19:28 32.735089 -117.202404 37 17ft 0kts
29-Jul-18 19:29 32.735089 -117.202404 37 17ft 0kts
29-Jul-18 19:30 32.735407 -117.202039 65 17ft 6kts
29-Jul-18 19:31 32.734718 -117.198705 106 17ft 13kts
29-Jul-18 19:32 32.733706 -117.194534 105 21ft 14kts
29-Jul-18 19:33 32.732473 -117.189469 106 19ft 18kts
29-Jul-18 19:34 32.730999 -117.183366 106 17ft 19kts
29-Jul-18 19:35 32.729683 -117.177947 106 21ft 12kts
29-Jul-18 19:36 32.729520 -117.176684 74 23ft 0kts
29-Jul-18 19:37 32.729520 -117.176684 74 23ft 0kts
29-Jul-18 19:38 32.729520 -117.176684 74 23ft 0kts
29-Jul-18 19:39 32.729601 -117.176373 71 23ft 5kts
29-Jul-18 19:40 32.730815 -117.178369 286 22ft 26kts
29-Jul-18 19:41 32.739508 -117.214562 287 562ft 170kts
29-Jul-18 19:42 32.767475 -117.265100 307 2226ft 223kts
29-Jul-18 19:43 32.807206 -117.330899 309 4814ft 264kts
29-Jul-18 19:44 32.852983 -117.401847 310 7745ft 282kts
29-Jul-18 19:45 32.902304 -117.478316 310 10324ft 307kts
29-Jul-18 19:46 32.957217 -117.563669 310 12660ft 336kts
29-Jul-18 19:47 33.014797 -117.653464 310 14974ft 354kts
29-Jul-18 19:48 33.072108 -117.739796 322 15252ft 357kts
29-Jul-18 19:49 33.147442 -117.815822 321 17848ft 363kts
29-Jul-18 19:50 33.223569 -117.897239 316 19691ft 375kts
29-Jul-18 19:51 33.298222 -117.986185 315 21405ft 384kts
29-Jul-18 19:52 33.374415 -118.077289 315 22993ft 392kts
29-Jul-18 19:53 33.451998 -118.170289 314 24413ft 401kts
29-Jul-18 19:54 33.531452 -118.265805 314 25693ft 409kts
29-Jul-18 19:55 33.612200 -118.363156 313 26901ft 416kts
29-Jul-18 19:56 33.694063 -118.462154 313 27994ft 422kts
29-Jul-18 19:57 33.776870 -118.562594 313 29011ft 428kts
29-Jul-18 19:58 33.859510 -118.663104 312 30173ft 426kts
29-Jul-18 19:59 33.942209 -118.763949 311 31194ft 426kts
29-Jul-18 20:00 34.025083 -118.865322 311 32021ft 429kts
29-Jul-18 20:01 34.108252 -118.967348 311 32870ft 428kts
29-Jul-18 20:02 34.180133 -119.079074 298 33647ft 420kts
29-Jul-18 20:03 34.241125 -119.199089 298 34290ft 420kts
29-Jul-18 20:04 34.301368 -119.316985 297 34895ft 419kts
29-Jul-18 20:05 34.362610 -119.436551 297 35448ft 418kts
29-Jul-18 20:06 34.426798 -119.552959 308 35915ft 424kts
29-Jul-18 20:07 34.510553 -119.656748 310 36027ft 444kts
29-Jul-18 20:08 34.599022 -119.765643 310 36020ft 466kts
29-Jul-18 20:09 34.689985 -119.878020 310 36050ft 468kts
29-Jul-18 20:10 34.780717 -119.990600 310 36050ft 467kts
29-Jul-18 20:11 34.871290 -120.103155 310 36058ft 467kts
29-Jul-18 20:12 34.946932 -120.197100 310 36058ft 467kts
29-Jul-18 20:13 35.052885 -120.328655 310 36058ft 470kts
29-Jul-18 20:14 35.145082 -120.437012 313 36051ft 471kts
29-Jul-18 20:15 35.241196 -120.544801 313 36035ft 471kts
29-Jul-18 20:16 35.336936 -120.652439 312 36029ft 470kts
29-Jul-18 20:17 35.432890 -120.760388 312 36036ft 470kts
29-Jul-18 20:18 35.515453 -120.848136 318 36032ft 475kts
29-Jul-18 20:19 35.620008 -120.945200 318 36010ft 465kts
29-Jul-18 20:20 35.738013 -121.055009 318 36031ft 456kts
29-Jul-18 20:21 35.836554 -121.147007 317 36029ft 444kts
29-Jul-18 20:22 35.917916 -121.223135 317 36030ft 443kts
29-Jul-18 20:23 36.016150 -121.315038 317 36030ft 446kts
29-Jul-18 20:24 36.114621 -121.401253 323 34539ft 454kts
29-Jul-18 20:25 36.215536 -121.480047 324 31866ft 450kts
29-Jul-18 20:26 36.318879 -121.560903 324 29388ft 443kts
29-Jul-18 20:27 36.415419 -121.636714 325 27053ft 436kts
29-Jul-18 20:28 36.507156 -121.708924 325 24773ft 424kts
29-Jul-18 20:29 36.598516 -121.781083 325 22444ft 413kts
29-Jul-18 20:30 36.684255 -121.848997 325 20510ft 395kts
29-Jul-18 20:31 36.778198 -121.906024 345 18558ft 383kts
29-Jul-18 20:32 36.878555 -121.933620 346 16604ft 371kts
29-Jul-18 20:33 36.972997 -121.961535 342 14753ft 358kts
29-Jul-18 20:34 37.064436 -121.997017 342 13070ft 332kts
29-Jul-18 20:35 37.142178 -122.027357 342 11477ft 289kts
29-Jul-18 20:36 37.212295 -122.054824 342 10034ft 280kts
29-Jul-18 20:37 37.282496 -122.082378 342 8600ft 273kts
29-Jul-18 20:38 37.353200 -122.110235 343 7376ft 266kts
29-Jul-18 20:39 37.420517 -122.134952 345 6155ft 243kts
29-Jul-18 20:40 37.482281 -122.156549 344 4777ft 232kts
29-Jul-18 20:41 37.541270 -122.179686 331 3576ft 217kts
29-Jul-18 20:42 37.574559 -122.236271 285 2346ft 212kts
29-Jul-18 20:43 37.589716 -122.299487 296 1471ft 166kts
29-Jul-18 20:44 37.606861 -122.346496 294 261ft 135kts
29-Jul-18 20:45 37.621427 -122.381532 298 31ft 52kts
29-Jul-18 20:46 37.622621 -122.389233 148 29ft 12kts
29-Jul-18 20:47 37.620526 -122.391755 155 30ft 16kts
29-Jul-18 20:48 37.620148 -122.389416 28 30ft 0kts
29-Jul-18 20:49 37.620170 -122.389401 28 30ft 0kts
29-Jul-18 20:50 37.620170 -122.389401 28 30ft 0kts

Navigation Log

Ident Type
Flight plan parsing failed, navigation log unavailable